Time;durP1;ratioP1;P1;durP2;ratioP2;P2;SDS_P1;SDS_P2;PMS_P1;PMS_P2;Temp;Humidity;BMP_temperature;BMP_pressure;BME280_temperature;BME280_humidity;BME280_pressure;Samples;Min_cycle;Max_cycle;Signal;HPM_P1;HPM_P2
2022/06/13 00:01:11;;;;;;;0.40;0.40;;;17.90;99.90;;;;;;5071749;28;20221;-73
2022/06/13 00:03:38;;;;;;;0.30;0.30;;;18.00;99.90;;;;;;5072084;28;20214;-74
2022/06/13 00:06:04;;;;;;;0.30;0.30;;;17.90;99.90;;;;;;5072270;28;20706;-74
2022/06/13 00:08:29;;;;;;;0.30;0.30;;;17.90;99.90;;;;;;5072109;28;20278;-73
2022/06/13 00:10:55;;;;;;;0.40;0.40;;;17.90;99.90;;;;;;5071666;28;20210;-74
2022/06/13 00:13:20;;;;;;;0.30;0.30;;;17.80;99.90;;;;;;5072206;28;20261;-73
2022/06/13 00:15:46;;;;;;;0.40;0.40;;;17.80;99.90;;;;;;5072238;28;20265;-74
2022/06/13 00:18:11;;;;;;;0.30;0.30;;;17.70;99.90;;;;;;5072106;28;20240;-73
2022/06/13 00:20:37;;;;;;;0.30;0.30;;;17.70;99.90;;;;;;5071823;28;20635;-74
2022/06/13 00:23:03;;;;;;;0.30;0.30;;;17.70;99.90;;;;;;5072133;28;20281;-73
2022/06/13 00:25:29;;;;;;;0.30;0.30;;;17.70;99.90;;;;;;5071588;28;20224;-73
2022/06/13 00:27:55;;;;;;;0.30;0.30;;;17.70;99.90;;;;;;5072157;28;20174;-74
2022/06/13 00:30:21;;;;;;;0.40;0.40;;;17.70;99.90;;;;;;5064737;28;20189;-73
2022/06/13 00:32:46;;;;;;;0.30;0.30;;;17.60;99.90;;;;;;5071555;28;20202;-73
2022/06/13 00:35:12;;;;;;;0.30;0.30;;;17.60;99.90;;;;;;5066569;28;20221;-73
2022/06/13 00:37:37;;;;;;;0.40;0.40;;;17.60;99.90;;;;;;5071774;28;20623;-73
2022/06/13 00:40:04;;;;;;;0.30;0.30;;;17.60;99.90;;;;;;5071405;28;20257;-74
2022/06/13 00:42:30;;;;;;;0.40;0.40;;;17.60;99.90;;;;;;5071518;28;20233;-73
2022/06/13 00:45:21;;;;;;;0.30;0.30;;;17.60;99.90;;;;;;5071494;28;20252;-73
2022/06/13 00:47:49;;;;;;;0.40;0.40;;;17.60;99.90;;;;;;5071840;28;20181;-73
2022/06/13 00:50:24;;;;;;;0.40;0.40;;;17.60;99.90;;;;;;5071319;28;20178;-73
2022/06/13 00:53:02;;;;;;;0.30;0.30;;;17.60;99.90;;;;;;5071370;28;20194;-73
2022/06/13 00:55:49;;;;;;;0.30;0.30;;;17.50;99.90;;;;;;5071364;28;20651;-73
2022/06/13 00:58:16;;;;;;;0.30;0.30;;;17.50;99.90;;;;;;5071484;28;20201;-74
2022/06/13 01:00:45;;;;;;;0.33;0.33;;;17.50;99.90;;;;;;5070799;28;20194;-74
2022/06/13 01:03:11;;;;;;;0.27;0.27;;;17.40;99.90;;;;;;5071344;28;20186;-74
2022/06/13 01:05:40;;;;;;;0.30;0.30;;;17.40;99.90;;;;;;5071322;28;20189;-73
2022/06/13 01:08:08;;;;;;;0.30;0.30;;;17.40;99.90;;;;;;5071484;28;20174;-73
2022/06/13 01:13:48;;;;;;;0.30;0.30;;;17.30;99.90;;;;;;5071670;28;20188;-73
2022/06/13 01:16:28;;;;;;;0.40;0.40;;;17.30;99.90;;;;;;5071377;28;20315;-73
2022/06/13 01:19:32;;;;;;;0.40;0.40;;;17.20;99.90;;;;;;5071110;28;20220;-72
2022/06/13 01:22:35;;;;;;;0.30;0.30;;;17.20;99.90;;;;;;5071291;28;20190;-74
2022/06/13 01:25:22;;;;;;;0.30;0.30;;;17.20;99.90;;;;;;5071176;28;20620;-73
2022/06/13 01:28:06;;;;;;;0.20;0.20;;;17.20;99.90;;;;;;5071342;28;20182;-73
2022/06/13 01:31:11;;;;;;;0.33;0.33;;;17.20;99.90;;;;;;5070691;28;20174;-73
2022/06/13 01:33:56;;;;;;;0.40;0.40;;;17.20;99.90;;;;;;5071172;28;20584;-73
2022/06/13 01:36:24;;;;;;;0.30;0.30;;;17.20;99.90;;;;;;5072515;28;20175;-73
2022/06/13 01:39:08;;;;;;;0.30;0.30;;;17.20;99.90;;;;;;5075379;28;20182;-72
2022/06/13 01:42:02;;;;;;;0.30;0.30;;;17.20;99.90;;;;;;5075111;28;20273;-72
2022/06/13 01:44:49;;;;;;;0.37;0.37;;;17.30;99.90;;;;;;5075412;28;20245;-73
2022/06/13 01:47:37;;;;;;;0.40;0.40;;;17.30;99.90;;;;;;5075549;28;20178;-73
2022/06/13 01:50:23;;;;;;;0.30;0.30;;;17.30;99.90;;;;;;5074616;28;20706;-73
2022/06/13 01:53:00;;;;;;;0.40;0.40;;;17.30;99.90;;;;;;5074829;28;20194;-73
2022/06/13 01:55:51;;;;;;;0.30;0.30;;;17.30;99.90;;;;;;5074964;28;20682;-73
2022/06/13 01:58:37;;;;;;;0.40;0.40;;;17.30;99.90;;;;;;5074812;28;20270;-73
2022/06/13 02:01:32;;;;;;;0.30;0.30;;;17.30;99.90;;;;;;5074349;28;20186;-73
2022/06/13 02:04:19;;;;;;;0.30;0.30;;;17.30;99.90;;;;;;5064135;28;20274;-73
2022/06/13 02:06:57;;;;;;;0.30;0.30;;;17.20;99.90;;;;;;5074764;28;20250;-73
2022/06/13 02:09:27;;;;;;;0.30;0.30;;;17.20;99.90;;;;;;5074496;28;20178;-73
2022/06/13 02:11:54;;;;;;;0.30;0.30;;;17.20;99.90;;;;;;5074524;28;20197;-73
2022/06/13 02:14:26;;;;;;;0.40;0.40;;;17.20;99.90;;;;;;5074669;28;20175;-72
2022/06/13 02:17:07;;;;;;;0.40;0.40;;;17.20;99.90;;;;;;5074673;28;20194;-73
2022/06/13 02:19:39;;;;;;;0.30;0.30;;;17.30;99.90;;;;;;5073878;28;20223;-72
2022/06/13 02:22:10;;;;;;;0.40;0.40;;;17.30;99.90;;;;;;5074619;28;20202;-72
2022/06/13 02:24:38;;;;;;;0.30;0.30;;;17.30;99.90;;;;;;5074335;28;20233;-72
2022/06/13 02:27:08;;;;;;;0.30;0.30;;;17.40;99.90;;;;;;5074377;28;20206;-72
2022/06/13 02:29:53;;;;;;;0.30;0.30;;;17.40;99.90;;;;;;5073790;28;20178;-72
2022/06/13 02:32:26;;;;;;;0.30;0.30;;;17.40;99.90;;;;;;5074198;28;20254;-73
2022/06/13 02:35:25;;;;;;;0.40;0.40;;;17.40;99.90;;;;;;5074117;28;21035;-73
2022/06/13 02:38:10;;;;;;;0.30;0.30;;;17.40;99.90;;;;;;5052532;28;20190;-72
2022/06/13 02:40:44;;;;;;;0.40;0.40;;;17.40;99.90;;;;;;5073796;28;20274;-72
2022/06/13 02:43:17;;;;;;;0.30;0.30;;;17.50;99.90;;;;;;5074247;28;20198;-72
2022/06/13 02:45:51;;;;;;;0.30;0.30;;;17.40;99.90;;;;;;5074153;28;20182;-73
2022/06/13 02:48:34;;;;;;;0.40;0.40;;;17.50;99.90;;;;;;5073441;28;20247;-73
2022/06/13 02:51:05;;;;;;;0.40;0.40;;;17.40;99.90;;;;;;5073629;28;20185;-73
2022/06/13 02:53:53;;;;;;;0.33;0.33;;;17.40;99.90;;;;;;5074110;28;20174;-73
2022/06/13 02:56:35;;;;;;;0.23;0.23;;;17.40;99.90;;;;;;5073799;28;20187;-73
2022/06/13 02:59:28;;;;;;;0.40;0.40;;;17.30;99.90;;;;;;5073584;28;20178;-73
2022/06/13 03:01:59;;;;;;;0.30;0.30;;;17.40;99.90;;;;;;5073726;28;20202;-72
2022/06/13 03:04:40;;;;;;;0.33;0.33;;;17.40;99.90;;;;;;5073827;28;20206;-73
2022/06/13 03:07:17;;;;;;;0.30;0.30;;;17.40;99.90;;;;;;5073491;28;20539;-73
2022/06/13 03:09:58;;;;;;;0.30;0.30;;;17.30;99.90;;;;;;5073460;28;20281;-72
2022/06/13 03:12:41;;;;;;;0.33;0.33;;;17.30;99.90;;;;;;5073774;28;20198;-72
2022/06/13 03:15:22;;;;;;;0.30;0.30;;;17.40;99.90;;;;;;5073660;28;20186;-72
2022/06/13 03:18:11;;;;;;;0.40;0.40;;;17.30;99.90;;;;;;5073844;28;20189;-72
2022/06/13 03:21:07;;;;;;;0.40;0.40;;;17.40;99.90;;;;;;5073111;28;20188;-72
2022/06/13 03:23:45;;;;;;;0.40;0.40;;;17.30;99.90;;;;;;5065076;28;20292;-72
2022/06/13 03:26:19;;;;;;;0.30;0.30;;;17.20;99.90;;;;;;5073752;28;20182;-72
2022/06/13 03:29:00;;;;;;;0.30;0.30;;;17.20;99.90;;;;;;5073495;28;20178;-72
2022/06/13 03:31:32;;;;;;;0.40;0.40;;;17.20;99.90;;;;;;5073192;28;20198;-72
2022/06/13 03:34:05;;;;;;;0.30;0.30;;;17.20;99.90;;;;;;5073131;28;20174;-72
2022/06/13 03:36:42;;;;;;;0.40;0.40;;;17.20;99.90;;;;;;5073419;28;20174;-72
2022/06/13 03:39:19;;;;;;;0.30;0.30;;;17.10;99.90;;;;;;5072839;28;20404;-72
2022/06/13 03:41:52;;;;;;;0.40;0.40;;;17.20;99.90;;;;;;5073057;28;20202;-72
2022/06/13 03:44:41;;;;;;;0.30;0.30;;;17.10;99.90;;;;;;5073003;28;20210;-73
2022/06/13 03:47:16;;;;;;;0.40;0.40;;;17.10;99.90;;;;;;5072201;28;20182;-72
2022/06/13 03:50:04;;;;;;;0.40;0.40;;;17.10;99.90;;;;;;5072448;28;20727;-72
2022/06/13 03:52:34;;;;;;;0.30;0.30;;;17.10;99.90;;;;;;5072667;28;20229;-73
2022/06/13 03:55:29;;;;;;;0.40;0.40;;;17.10;99.90;;;;;;5072658;28;20558;-73
2022/06/13 03:58:13;;;;;;;0.33;0.33;;;17.00;99.90;;;;;;5069717;28;20191;-73
2022/06/13 04:00:45;;;;;;;0.30;0.30;;;16.90;99.90;;;;;;5070985;28;20216;-73
2022/06/13 04:03:11;;;;;;;0.30;0.30;;;16.70;99.90;;;;;;5072332;28;20277;-72
2022/06/13 04:05:56;;;;;;;0.30;0.30;;;16.70;99.90;;;;;;5073120;28;20273;-73
2022/06/13 04:08:22;;;;;;;0.30;0.30;;;16.80;99.90;;;;;;5071705;28;20178;-73
2022/06/13 04:11:03;;;;;;;0.40;0.40;;;16.80;99.90;;;;;;5071931;28;20277;-73
2022/06/13 04:13:49;;;;;;;0.30;0.30;;;16.90;99.90;;;;;;5072457;28;20609;-73
2022/06/13 04:16:30;;;;;;;0.30;0.30;;;16.80;99.90;;;;;;5072255;28;20534;-72
2022/06/13 04:19:32;;;;;;;0.37;0.37;;;16.80;99.90;;;;;;5070308;28;20202;-73
2022/06/13 04:22:14;;;;;;;0.30;0.30;;;16.80;99.90;;;;;;5035047;28;20683;-73
2022/06/13 04:24:55;;;;;;;0.40;0.40;;;16.90;99.90;;;;;;5052216;28;20214;-73
2022/06/13 04:27:52;;;;;;;0.37;0.37;;;16.90;99.90;;;;;;5052144;28;20207;-72
2022/06/13 04:30:21;;;;;;;0.30;0.30;;;17.00;99.90;;;;;;5050576;28;20187;-73
2022/06/13 04:32:54;;;;;;;0.33;0.33;;;17.00;99.90;;;;;;5070245;28;20198;-73
2022/06/13 04:35:21;;;;;;;0.33;0.33;;;17.00;99.90;;;;;;5072081;28;20167;-72
2022/06/13 04:37:47;;;;;;;0.30;0.30;;;17.10;99.90;;;;;;5071896;28;20186;-72
2022/06/13 04:40:20;;;;;;;0.30;0.30;;;17.10;99.90;;;;;;5071480;28;20182;-72
2022/06/13 04:42:48;;;;;;;0.30;0.30;;;17.20;99.90;;;;;;5071472;28;20202;-73
2022/06/13 04:45:30;;;;;;;0.30;0.30;;;17.20;96.40;;;;;;5071546;28;20718;-73
2022/06/13 04:47:58;;;;;;;0.60;0.60;;;17.30;99.90;;;;;;5071857;28;20261;-72
2022/06/13 04:50:39;;;;;;;0.30;0.30;;;17.20;97.80;;;;;;5067507;28;20174;-73
2022/06/13 04:53:11;;;;;;;0.30;0.30;;;17.20;99.90;;;;;;5071227;28;20202;-73
2022/06/13 04:55:43;;;;;;;0.30;0.30;;;17.10;99.90;;;;;;5071631;28;20239;-73
2022/06/13 04:58:31;;;;;;;0.30;0.30;;;17.10;99.90;;;;;;5071738;28;20175;-73
2022/06/13 05:01:05;;;;;;;0.40;0.40;;;17.00;94.10;;;;;;5071124;28;20335;-74
2022/06/13 05:03:42;;;;;;;0.30;0.30;;;17.20;1.00;;;;;;5071535;28;20210;-73
2022/06/13 05:06:20;;;;;;;0.30;0.30;;;17.50;1.00;;;;;;5071451;28;20647;-73
2022/06/13 05:08:56;;;;;;;0.30;0.30;;;17.70;1.00;;;;;;5071276;28;20549;-72
2022/06/13 05:11:28;;;;;;;0.40;0.40;;;17.80;1.00;;;;;;5071240;28;20205;-73
2022/06/13 05:14:02;;;;;;;0.30;0.30;;;17.80;1.00;;;;;;5071550;28;20170;-72
2022/06/13 05:16:43;;;;;;;0.40;0.40;;;17.90;1.00;;;;;;5071671;28;20236;-72
2022/06/13 05:19:33;;;;;;;0.40;0.40;;;18.00;1.00;;;;;;5071053;28;20188;-72
2022/06/13 05:22:19;;;;;;;0.40;0.40;;;18.00;1.00;;;;;;5071134;28;20188;-73
2022/06/13 05:24:59;;;;;;;0.30;0.30;;;17.90;1.00;;;;;;5070575;28;20214;-73
2022/06/13 05:27:25;;;;;;;0.40;0.40;;;18.00;1.00;;;;;;5066544;28;20264;-69
2022/06/13 05:29:50;;;;;;;0.30;0.30;;;17.90;99.90;;;;;;5070584;28;20671;-70
2022/06/13 05:32:19;;;;;;;0.30;0.30;;;17.80;1.00;;;;;;5070992;28;20559;-69
2022/06/13 05:34:45;;;;;;;0.30;0.30;;;17.70;1.00;;;;;;5071027;28;20178;-69
2022/06/13 05:37:13;;;;;;;0.30;0.30;;;17.50;1.00;;;;;;5070716;28;20208;-69
2022/06/13 05:39:39;;;;;;;0.40;0.40;;;17.40;1.00;;;;;;5070568;28;20258;-70
2022/06/13 05:42:05;;;;;;;0.40;0.40;;;17.30;1.00;;;;;;5070950;28;20659;-69
2022/06/13 05:44:31;;;;;;;0.33;0.33;;;17.30;1.00;;;;;;5070986;28;20213;-69
2022/06/13 05:46:57;;;;;;;0.50;0.50;;;17.40;1.00;;;;;;5071008;28;20692;-72
2022/06/13 05:49:22;;;;;;;0.40;0.40;;;17.60;1.00;;;;;;5070060;28;20198;-72
2022/06/13 05:51:48;;;;;;;0.30;0.30;;;17.80;1.00;;;;;;5070653;28;20241;-73
2022/06/13 05:54:14;;;;;;;0.30;0.30;;;17.90;1.00;;;;;;5052624;28;20179;-72
2022/06/13 05:56:40;;;;;;;0.30;0.30;;;17.90;99.90;;;;;;5050698;28;20175;-72
2022/06/13 05:59:06;;;;;;;0.40;0.40;;;17.90;99.90;;;;;;5050219;28;20225;-73
2022/06/13 06:01:34;;;;;;;0.30;0.30;;;17.80;99.90;;;;;;5050504;28;20202;-73
2022/06/13 06:04:00;;;;;;;0.30;0.30;;;17.80;1.00;;;;;;5050625;28;20214;-73
2022/06/13 06:06:27;;;;;;;0.30;0.30;;;17.90;1.00;;;;;;5050558;28;20172;-72
2022/06/13 06:08:54;;;;;;;0.40;0.40;;;18.00;1.00;;;;;;5050472;28;20228;-72
2022/06/13 06:11:20;;;;;;;0.40;0.40;;;18.00;99.90;;;;;;5050734;28;20265;-71
2022/06/13 06:13:46;;;;;;;0.30;0.30;;;18.00;1.00;;;;;;5050698;28;20581;-73
2022/06/13 06:16:18;;;;;;;0.40;0.40;;;18.00;1.00;;;;;;5050607;28;20186;-72
2022/06/13 06:18:44;;;;;;;0.30;0.30;;;18.00;1.00;;;;;;5050396;28;20652;-72
2022/06/13 06:21:10;;;;;;;0.47;0.47;;;18.00;99.90;;;;;;5050329;28;20229;-72
2022/06/13 06:23:36;;;;;;;0.40;0.40;;;18.00;99.90;;;;;;5052097;28;20250;-72
2022/06/13 06:26:03;;;;;;;0.30;0.30;;;18.00;99.90;;;;;;5054675;28;20186;-73
2022/06/13 06:28:28;;;;;;;0.30;0.30;;;18.00;1.00;;;;;;5054388;28;20187;-72
2022/06/13 06:30:56;;;;;;;0.30;0.30;;;18.00;99.90;;;;;;5053866;28;20179;-72
2022/06/13 06:33:22;;;;;;;0.40;0.40;;;18.10;1.00;;;;;;5054265;28;20186;-74
2022/06/13 06:35:53;;;;;;;0.40;0.40;;;18.20;1.00;;;;;;5054306;28;20179;-73
2022/06/13 06:38:23;;;;;;;0.30;0.30;;;18.30;99.90;;;;;;5054302;28;20328;-72
2022/06/13 06:40:49;;;;;;;0.37;0.37;;;18.30;1.00;;;;;;5053621;28;20179;-73
2022/06/13 06:43:15;;;;;;;0.33;0.33;;;18.30;1.00;;;;;;5053714;28;20206;-73
2022/06/13 06:45:42;;;;;;;0.47;0.47;;;18.30;1.00;;;;;;5054176;28;20310;-73
2022/06/13 06:48:13;;;;;;;0.40;0.40;;;18.30;33.40;;;;;;5054123;28;20309;-73
2022/06/13 06:50:41;;;;;;;0.30;0.30;;;18.30;1.00;;;;;;5052928;28;20198;-72
2022/06/13 06:53:06;;;;;;;0.40;0.40;;;18.40;1.00;;;;;;5053500;28;20195;-72
2022/06/13 07:01:04;;;;;;;0.30;0.30;;;18.40;99.90;;;;;;5053094;28;20186;-74
2022/06/13 07:03:30;;;;;;;0.30;0.30;;;18.50;1.00;;;;;;5053682;28;20179;-72
2022/06/13 07:05:56;;;;;;;0.40;0.40;;;18.70;1.00;;;;;;5053598;28;20183;-72
2022/06/13 07:08:22;;;;;;;0.30;0.30;;;18.90;99.90;;;;;;5053637;28;20182;-73
2022/06/13 07:10:49;;;;;;;0.30;0.30;;;19.10;99.90;;;;;;5052909;28;20202;-73
2022/06/13 07:13:16;;;;;;;0.30;0.30;;;19.20;10.90;;;;;;5053606;28;20201;-72
2022/06/13 07:15:42;;;;;;;0.30;0.30;;;19.40;6.90;;;;;;5053586;28;20202;-73
2022/06/13 07:18:09;;;;;;;0.30;0.30;;;19.60;99.90;;;;;;5053341;28;20182;-73
2022/06/13 07:20:35;;;;;;;0.40;0.40;;;19.70;1.00;;;;;;5052859;28;20179;-73
2022/06/13 07:23:01;;;;;;;0.30;0.30;;;19.80;1.00;;;;;;5053376;28;20276;-72
2022/06/13 07:25:28;;;;;;;0.30;0.30;;;19.90;1.00;;;;;;5052895;28;20295;-73
2022/06/13 07:27:54;;;;;;;0.30;0.30;;;20.00;1.00;;;;;;5053324;28;20221;-72
2022/06/13 07:30:22;;;;;;;0.40;0.40;;;20.00;1.00;;;;;;5052498;28;20219;-73
2022/06/13 07:32:47;;;;;;;0.40;0.40;;;20.20;1.00;;;;;;5053109;28;20252;-73
2022/06/13 07:35:16;;;;;;;0.30;0.30;;;20.40;1.00;;;;;;5052922;28;20171;-73
2022/06/13 07:40:28;;;;;;;0.30;0.30;;;20.70;99.90;;;;;;5052841;28;20190;-73
2022/06/13 07:42:56;;;;;;;0.30;0.30;;;20.90;99.90;;;;;;5053139;28;20229;-73
2022/06/13 07:45:24;;;;;;;0.20;0.20;;;21.20;99.90;;;;;;5053027;28;20219;-73
2022/06/13 07:47:51;;;;;;;0.30;0.30;;;21.60;27.10;;;;;;5052959;28;20179;-74
2022/06/13 07:50:20;;;;;;;0.30;0.30;;;21.80;1.00;;;;;;5052286;28;20651;-73
2022/06/13 07:52:46;;;;;;;0.30;0.30;;;22.10;1.00;;;;;;5053021;28;20278;-73
2022/06/13 07:55:12;;;;;;;0.30;0.30;;;22.30;1.00;;;;;;5052958;28;20184;-73
2022/06/13 07:57:37;;;;;;;0.30;0.30;;;22.50;1.00;;;;;;5052897;28;20186;-73
2022/06/13 08:00:07;;;;;;;0.33;0.33;;;22.80;1.00;;;;;;5052113;28;20213;-73
2022/06/13 08:02:36;;;;;;;0.30;0.30;;;23.30;1.00;;;;;;5052529;28;20199;-72
2022/06/13 08:05:02;;;;;;;0.23;0.23;;;23.70;1.00;;;;;;5052334;28;20215;-73
2022/06/13 08:07:28;;;;;;;0.20;0.20;;;23.90;1.00;;;;;;5052764;28;20245;-73
2022/06/13 08:09:53;;;;;;;0.30;0.30;;;23.90;1.00;;;;;;5052213;28;20333;-72
2022/06/13 08:12:20;;;;;;;0.30;0.30;;;24.10;1.00;;;;;;5052310;28;20223;-73
2022/06/13 08:14:47;;;;;;;0.30;0.30;;;24.30;1.00;;;;;;5052401;28;20294;-73
2022/06/13 08:17:18;;;;;;;0.30;0.30;;;24.40;1.00;;;;;;5052226;28;20237;-73
2022/06/13 08:19:44;;;;;;;0.30;0.30;;;24.70;1.00;;;;;;5051813;28;20234;-73
2022/06/13 08:22:10;;;;;;;0.33;0.33;;;24.80;1.00;;;;;;5052204;28;20223;-73
2022/06/13 08:24:36;;;;;;;0.50;0.50;;;25.10;1.00;;;;;;5052238;28;20214;-73
2022/06/13 08:27:03;;;;;;;0.30;0.30;;;25.40;1.00;;;;;;5052041;28;20654;-73
2022/06/13 08:29:29;;;;;;;0.30;0.30;;;25.60;1.00;;;;;;5051489;28;20187;-73
2022/06/13 08:31:55;;;;;;;0.50;0.50;;;25.90;1.00;;;;;;5051814;28;20195;-73
2022/06/13 08:34:21;;;;;;;0.30;0.30;;;26.10;1.00;;;;;;5052141;28;20182;-73
2022/06/13 08:36:46;;;;;;;0.47;0.47;;;26.30;1.00;;;;;;5052122;28;20175;-73
2022/06/13 08:39:13;;;;;;;0.30;0.30;;;26.50;1.00;;;;;;5051579;28;20179;-73
2022/06/13 08:42:04;;;;;;;0.30;0.30;;;26.70;1.00;;;;;;5051855;28;20202;-73
2022/06/13 08:44:55;;;;;;;0.40;0.40;;;26.70;1.00;;;;;;5051779;28;20214;-73
2022/06/13 08:47:35;;;;;;;0.40;0.40;;;26.70;1.00;;;;;;5046344;28;20187;-73
2022/06/13 08:50:33;;;;;;;0.30;0.30;;;26.80;1.00;;;;;;5051278;28;20597;-73
2022/06/13 08:53:20;;;;;;;0.37;0.37;;;27.10;1.00;;;;;;5051540;28;20199;-74
2022/06/13 08:55:57;;;;;;;0.30;0.30;;;26.60;1.00;;;;;;5051458;28;20718;-74
2022/06/13 08:58:35;;;;;;;0.30;0.30;;;26.20;1.00;;;;;;5051641;28;20179;-74
2022/06/13 09:01:09;;;;;;;0.43;0.43;;;25.80;1.00;;;;;;5050770;28;20202;-73
2022/06/13 09:03:43;;;;;;;0.30;0.30;;;25.60;1.00;;;;;;5051278;28;20602;-74
2022/06/13 09:06:34;;;;;;;0.50;0.50;;;26.10;1.00;;;;;;5051455;28;20713;-73
2022/06/13 09:09:20;;;;;;;0.40;0.40;;;26.50;1.00;;;;;;5050883;28;20179;-73
2022/06/13 09:12:01;;;;;;;0.40;0.40;;;27.00;1.00;;;;;;5051066;28;20191;-74
2022/06/13 09:14:36;;;;;;;0.30;0.30;;;27.50;1.00;;;;;;5051694;28;20186;-73
2022/06/13 09:17:37;;;;;;;0.50;0.50;;;27.60;1.00;;;;;;5051194;28;20171;-73
2022/06/13 09:20:21;;;;;;;0.37;0.37;;;27.30;1.00;;;;;;5050647;28;20527;-73
2022/06/13 09:23:14;;;;;;;0.40;0.40;;;27.40;1.00;;;;;;5051385;28;20206;-73
2022/06/13 09:26:16;;;;;;;0.40;0.40;;;27.50;1.00;;;;;;5051329;28;20256;-73
2022/06/13 09:28:54;;;;;;;0.40;0.40;;;27.30;1.00;;;;;;4999406;28;20194;-73
2022/06/13 09:31:30;;;;;;;0.30;0.30;;;26.60;1.00;;;;;;5051311;28;20671;-74
2022/06/13 09:34:21;;;;;;;0.30;0.30;;;26.40;1.00;;;;;;5051446;28;20170;-73
2022/06/13 09:36:55;;;;;;;0.40;0.40;;;26.90;1.00;;;;;;5051137;28;20537;-74
2022/06/13 09:39:20;;;;;;;0.40;0.40;;;26.70;1.00;;;;;;5050749;28;20240;-74
2022/06/13 09:42:17;;;;;;;0.30;0.30;;;26.70;1.00;;;;;;5050914;28;20202;-74
2022/06/13 09:45:01;;;;;;;0.40;0.40;;;26.90;1.00;;;;;;5050819;28;20688;-74
2022/06/13 09:47:51;;;;;;;0.40;0.40;;;27.50;1.00;;;;;;5051132;28;20179;-73
2022/06/13 09:50:43;;;;;;;0.30;0.30;;;27.60;1.00;;;;;;5050483;28;20175;-74
2022/06/13 09:53:35;;;;;;;0.40;0.40;;;28.00;1.00;;;;;;5050716;28;20203;-74
2022/06/13 09:56:06;;;;;;;0.30;0.30;;;28.00;1.00;;;;;;5050827;28;20655;-74
2022/06/13 09:58:54;;;;;;;0.40;0.40;;;27.90;1.00;;;;;;5052431;28;20259;-74
2022/06/13 10:01:28;;;;;;;0.50;0.50;;;28.10;1.00;;;;;;5054576;28;20211;-74
2022/06/13 10:04:12;;;;;;;0.50;0.50;;;28.20;1.00;;;;;;5054732;28;20731;-74
2022/06/13 10:06:40;;;;;;;0.40;0.40;;;28.30;1.00;;;;;;5082960;23;20257;-78
2022/06/13 10:09:14;;;;;;;0.50;0.50;;;28.30;1.00;;;;;;5060338;28;20182;-77
2022/06/13 10:11:42;;;;;;;0.40;0.40;;;28.10;1.00;;;;;;5077552;28;20273;-77
2022/06/13 10:14:45;;;;;;;0.40;0.40;;;28.20;1.00;;;;;;5077467;28;20604;-77
2022/06/13 10:17:33;;;;;;;0.50;0.50;;;28.40;1.00;;;;;;5079072;28;20670;-77
2022/06/13 10:20:18;;;;;;;0.47;0.47;;;28.60;1.00;;;;;;5077877;28;20229;-75
2022/06/13 10:22:54;;;;;;;0.50;0.50;;;28.50;1.00;;;;;;5075513;28;20224;-76
2022/06/13 10:25:52;;;;;;;0.43;0.43;;;28.90;1.00;;;;;;5075176;28;20225;-77
2022/06/13 10:28:45;;;;;;;0.53;0.53;;;29.10;1.00;;;;;;5074945;28;20183;-76
2022/06/13 10:31:34;;;;;;;0.60;0.60;;;29.30;1.00;;;;;;5074815;28;20178;-76
2022/06/13 10:34:11;;;;;;;0.40;0.40;;;29.30;1.00;;;;;;5074920;28;20205;-76
2022/06/13 10:36:49;;;;;;;0.47;0.47;;;29.40;1.00;;;;;;5075015;28;20170;-75
2022/06/13 10:39:17;;;;;;;0.50;0.50;;;29.10;1.00;;;;;;5073908;28;20650;-75
2022/06/13 10:41:47;;;;;;;0.40;0.40;;;28.30;1.00;;;;;;5074448;28;20975;-76
2022/06/13 10:44:16;;;;;;;0.40;0.40;;;28.40;1.00;;;;;;5056363;28;20202;-75
2022/06/13 10:46:50;;;;;;;0.60;0.60;;;28.20;1.00;;;;;;5074499;28;20182;-76
2022/06/13 10:49:27;;;;;;;0.50;0.50;;;28.30;1.00;;;;;;5074040;28;20178;-75
2022/06/13 10:51:59;;;;;;;0.50;0.50;;;28.70;1.00;;;;;;5074261;28;20671;-76
2022/06/13 10:54:31;;;;;;;0.50;0.50;;;28.30;1.00;;;;;;5074449;28;20536;-76
2022/06/13 10:57:04;;;;;;;0.53;0.53;;;27.60;1.00;;;;;;5074195;28;20601;-76
2022/06/13 10:59:33;;;;;;;0.40;0.40;;;27.30;1.00;;;;;;5073712;28;20595;-76
2022/06/13 11:02:01;;;;;;;0.40;0.40;;;27.50;1.00;;;;;;5074370;28;20190;-76
2022/06/13 11:04:32;;;;;;;0.40;0.40;;;28.00;1.00;;;;;;5056351;28;20424;-77
2022/06/13 11:07:03;;;;;;;0.30;0.30;;;28.20;1.00;;;;;;5073904;28;20723;-76
2022/06/13 11:09:40;;;;;;;0.60;0.60;;;28.60;1.00;;;;;;5072949;28;20542;-75
2022/06/13 11:12:30;;;;;;;0.60;0.60;;;28.60;1.00;;;;;;5073965;28;20194;-76
2022/06/13 11:23:48;;;;;;;0.60;0.60;;;28.50;1.00;;;;;;5074070;28;20201;-76
2022/06/13 11:29:03;;;;;;;0.50;0.50;;;29.00;1.00;;;;;;5041686;28;20236;-75
2022/06/13 11:31:29;;;;;;;0.40;0.40;;;28.60;1.00;;;;;;5073701;28;20191;-74
2022/06/13 11:33:55;;;;;;;0.43;0.43;;;27.90;1.00;;;;;;5073662;28;20269;-75
2022/06/13 11:36:24;;;;;;;0.50;0.50;;;27.30;1.00;;;;;;5073547;28;20265;-76
2022/06/13 11:39:04;;;;;;;0.40;0.40;;;27.20;1.00;;;;;;5073321;28;20220;-76
2022/06/13 11:41:40;;;;;;;0.43;0.43;;;27.30;1.00;;;;;;5073449;28;20615;-76
2022/06/13 11:44:07;;;;;;;0.50;0.50;;;27.30;1.00;;;;;;5073321;28;20300;-76
2022/06/13 11:46:44;;;;;;;0.43;0.43;;;27.80;1.00;;;;;;5073486;28;20174;-76
2022/06/13 11:49:15;;;;;;;0.47;0.47;;;28.00;1.00;;;;;;5072788;28;20214;-76
2022/06/13 11:51:42;;;;;;;0.40;0.40;;;27.50;1.00;;;;;;5072769;28;20195;-76
2022/06/13 11:54:26;;;;;;;0.47;0.47;;;27.80;1.00;;;;;;5072933;28;20358;-76
2022/06/13 11:57:15;;;;;;;0.30;0.30;;;28.40;1.00;;;;;;5073085;28;20170;-76
2022/06/13 11:59:44;;;;;;;0.47;0.47;;;28.20;1.00;;;;;;5072286;28;20643;-76
2022/06/13 12:02:17;;;;;;;0.40;0.40;;;28.50;1.00;;;;;;5072928;28;20571;-76
2022/06/13 12:04:46;;;;;;;0.30;0.30;;;28.00;1.00;;;;;;5072549;28;20305;-76
2022/06/13 12:07:28;;;;;;;0.50;0.50;;;27.20;1.00;;;;;;5072753;28;20690;-75
2022/06/13 12:09:59;;;;;;;0.30;0.30;;;27.40;1.00;;;;;;5072427;28;20194;-75
2022/06/13 12:12:27;;;;;;;0.30;0.30;;;28.00;1.00;;;;;;5072636;28;20195;-76
2022/06/13 12:14:54;;;;;;;0.40;0.40;;;28.40;1.00;;;;;;5072506;28;20644;-76
2022/06/13 12:17:27;;;;;;;0.40;0.40;;;28.70;1.00;;;;;;5072780;28;20308;-74
2022/06/13 12:20:16;;;;;;;0.30;0.30;;;28.70;1.00;;;;;;5072084;28;20265;-75
2022/06/13 12:22:47;;;;;;;0.37;0.37;;;28.20;1.00;;;;;;5072107;28;20194;-75
2022/06/13 12:25:22;;;;;;;0.50;0.50;;;27.60;1.00;;;;;;5072314;28;20271;-75
2022/06/13 12:27:50;;;;;;;0.40;0.40;;;27.60;1.00;;;;;;5072605;28;20170;-75
2022/06/13 12:30:40;;;;;;;0.47;0.47;;;28.00;1.00;;;;;;5072055;28;20181;-75
2022/06/13 12:33:05;;;;;;;0.30;0.30;;;28.50;1.00;;;;;;5072634;28;20554;-75
2022/06/13 12:35:46;;;;;;;0.40;0.40;;;28.80;1.00;;;;;;5072226;28;20216;-76
2022/06/13 12:38:20;;;;;;;0.50;0.50;;;28.60;1.00;;;;;;5072409;28;20635;-76
2022/06/13 12:41:07;;;;;;;0.53;0.53;;;28.60;1.00;;;;;;5070108;28;20174;-76
2022/06/13 12:43:38;;;;;;;0.60;0.60;;;28.70;1.00;;;;;;5072120;28;20273;-76
2022/06/13 12:46:19;;;;;;;0.40;0.40;;;28.80;1.00;;;;;;5071667;28;20175;-78
2022/06/13 12:48:47;;;;;;;0.50;0.50;;;28.60;1.00;;;;;;5072002;28;20176;-76
2022/06/13 12:51:32;;;;;;;0.50;0.50;;;29.00;1.00;;;;;;5071578;28;20206;-77
2022/06/13 12:54:06;;;;;;;0.50;0.50;;;29.00;1.00;;;;;;5071980;28;20201;-76
2022/06/13 12:56:56;;;;;;;0.40;0.40;;;28.70;1.00;;;;;;5071349;28;20177;-77
2022/06/13 12:59:23;;;;;;;0.30;0.30;;;28.40;1.00;;;;;;5068953;28;20540;-78
2022/06/13 13:02:14;;;;;;;0.50;0.50;;;27.80;1.00;;;;;;5060470;28;20218;-76
2022/06/13 13:04:56;;;;;;;0.40;0.40;;;27.20;1.00;;;;;;5060827;28;20684;-74
2022/06/13 13:07:45;;;;;;;0.40;0.40;;;26.40;1.00;;;;;;5061266;28;20190;-76
2022/06/13 13:10:36;;;;;;;0.30;0.30;;;26.00;1.00;;;;;;5054254;28;20197;-76
2022/06/13 13:13:22;;;;;;;0.37;0.37;;;26.80;1.00;;;;;;5071727;28;20229;-76
2022/06/13 13:15:50;;;;;;;0.47;0.47;;;27.40;1.00;;;;;;5066347;28;20680;-76
2022/06/13 13:18:16;;;;;;;0.30;0.30;;;27.70;1.00;;;;;;5056214;28;20172;-76
2022/06/13 13:20:50;;;;;;;0.50;0.50;;;28.00;1.00;;;;;;5051300;28;20194;-76
2022/06/13 13:23:47;;;;;;;0.40;0.40;;;28.20;1.00;;;;;;5054973;28;20202;-75
2022/06/13 13:26:27;;;;;;;0.50;0.50;;;28.30;1.00;;;;;;5067542;28;20202;-75
2022/06/13 13:29:00;;;;;;;0.50;0.50;;;28.10;1.00;;;;;;5069881;28;20170;-76
2022/06/13 13:31:42;;;;;;;0.40;0.40;;;28.00;1.00;;;;;;5071420;28;20281;-75
2022/06/13 13:34:49;;;;;;;0.30;0.30;;;27.80;1.00;;;;;;5064616;28;20178;-75
2022/06/13 13:37:38;;;;;;;0.30;0.30;;;27.40;1.00;;;;;;5022748;28;20634;-75
2022/06/13 13:40:21;;;;;;;0.53;0.53;;;27.30;1.00;;;;;;5051326;28;20262;-74
2022/06/13 13:43:05;;;;;;;0.40;0.40;;;27.40;1.00;;;;;;5051348;28;20219;-75
2022/06/13 13:45:48;;;;;;;0.60;0.60;;;27.60;1.00;;;;;;5051532;28;20229;-75
2022/06/13 13:48:26;;;;;;;0.30;0.30;;;27.80;1.00;;;;;;5051315;28;20171;-75
2022/06/13 13:51:17;;;;;;;0.40;0.40;;;27.40;1.00;;;;;;5053165;28;20640;-75
2022/06/13 13:54:13;;;;;;;0.30;0.30;;;26.70;1.00;;;;;;5071433;28;20196;-75
2022/06/13 13:56:50;;;;;;;0.37;0.37;;;26.50;1.00;;;;;;5055624;28;20183;-75
2022/06/13 13:59:19;;;;;;;0.47;0.47;;;26.20;1.00;;;;;;5070964;28;20182;-75